sensor_id;sensor_type;location;lat;lon;timestamp;temperature;humidity
2389;DHT22;1205;47.984;7.668;2022-11-04T00:01:15;11.80;99.90
2389;DHT22;1205;47.984;7.668;2022-11-04T00:03:40;11.80;99.90
2389;DHT22;1205;47.984;7.668;2022-11-04T00:06:07;11.70;99.90
2389;DHT22;1205;47.984;7.668;2022-11-04T00:08:33;11.80;99.90
2389;DHT22;1205;47.984;7.668;2022-11-04T00:10:59;11.70;99.90
2389;DHT22;1205;47.984;7.668;2022-11-04T00:13:45;11.70;99.90
2389;DHT22;1205;47.984;7.668;2022-11-04T00:16:11;11.70;99.90
2389;DHT22;1205;47.984;7.668;2022-11-04T00:18:55;11.70;99.90
2389;DHT22;1205;47.984;7.668;2022-11-04T00:21:21;11.70;99.90
2389;DHT22;1205;47.984;7.668;2022-11-04T00:24:07;11.70;99.90
2389;DHT22;1205;47.984;7.668;2022-11-04T00:26:51;11.70;99.90
2389;DHT22;1205;47.984;7.668;2022-11-04T00:29:36;11.70;99.90
2389;DHT22;1205;47.984;7.668;2022-11-04T00:32:01;11.70;99.90
2389;DHT22;1205;47.984;7.668;2022-11-04T00:34:45;11.70;99.90
2389;DHT22;1205;47.984;7.668;2022-11-04T00:37:11;11.60;99.90
2389;DHT22;1205;47.984;7.668;2022-11-04T00:39:36;11.60;99.90
2389;DHT22;1205;47.984;7.668;2022-11-04T00:42:02;11.60;99.90
2389;DHT22;1205;47.984;7.668;2022-11-04T00:44:27;11.60;99.90
2389;DHT22;1205;47.984;7.668;2022-11-04T00:46:53;11.60;99.90
2389;DHT22;1205;47.984;7.668;2022-11-04T00:49:19;11.50;99.90
2389;DHT22;1205;47.984;7.668;2022-11-04T00:51:44;11.50;99.90
2389;DHT22;1205;47.984;7.668;2022-11-04T00:54:10;11.40;99.90
2389;DHT22;1205;47.984;7.668;2022-11-04T00:56:39;11.50;99.90
2389;DHT22;1205;47.984;7.668;2022-11-04T00:59:05;11.50;99.90
2389;DHT22;1205;47.984;7.668;2022-11-04T01:01:31;11.50;99.90
2389;DHT22;1205;47.984;7.668;2022-11-04T01:03:57;11.40;99.90
2389;DHT22;1205;47.984;7.668;2022-11-04T01:06:24;11.40;99.90
2389;DHT22;1205;47.984;7.668;2022-11-04T01:08:57;11.40;99.90
2389;DHT22;1205;47.984;7.668;2022-11-04T01:11:23;11.40;99.90
2389;DHT22;1205;47.984;7.668;2022-11-04T01:13:49;11.40;99.90
2389;DHT22;1205;47.984;7.668;2022-11-04T01:16:16;11.30;99.90
2389;DHT22;1205;47.984;7.668;2022-11-04T01:18:42;11.30;99.90
2389;DHT22;1205;47.984;7.668;2022-11-04T01:21:10;11.30;99.90
2389;DHT22;1205;47.984;7.668;2022-11-04T01:23:36;11.30;99.90
2389;DHT22;1205;47.984;7.668;2022-11-04T01:26:09;11.20;99.90
2389;DHT22;1205;47.984;7.668;2022-11-04T01:28:36;11.20;99.90
2389;DHT22;1205;47.984;7.668;2022-11-04T01:31:09;11.10;99.90
2389;DHT22;1205;47.984;7.668;2022-11-04T01:33:36;11.10;99.90
2389;DHT22;1205;47.984;7.668;2022-11-04T01:36:02;11.10;99.90
2389;DHT22;1205;47.984;7.668;2022-11-04T01:38:28;11.10;99.90
2389;DHT22;1205;47.984;7.668;2022-11-04T01:40:54;11.10;99.90
2389;DHT22;1205;47.984;7.668;2022-11-04T01:43:21;11.10;99.90
2389;DHT22;1205;47.984;7.668;2022-11-04T01:45:54;11.00;99.90
2389;DHT22;1205;47.984;7.668;2022-11-04T01:48:27;11.00;99.90
2389;DHT22;1205;47.984;7.668;2022-11-04T01:50:54;11.00;99.90
2389;DHT22;1205;47.984;7.668;2022-11-04T01:53:27;11.00;99.90
2389;DHT22;1205;47.984;7.668;2022-11-04T01:55:57;10.90;99.90
2389;DHT22;1205;47.984;7.668;2022-11-04T01:58:30;10.90;99.90
2389;DHT22;1205;47.984;7.668;2022-11-04T02:00:56;10.90;99.90
2389;DHT22;1205;47.984;7.668;2022-11-04T02:03:33;10.90;99.90
2389;DHT22;1205;47.984;7.668;2022-11-04T02:06:00;11.00;99.90
2389;DHT22;1205;47.984;7.668;2022-11-04T02:08:28;11.00;99.90
2389;DHT22;1205;47.984;7.668;2022-11-04T02:10:58;10.90;99.90
2389;DHT22;1205;47.984;7.668;2022-11-04T02:13:25;10.90;99.90
2389;DHT22;1205;47.984;7.668;2022-11-04T02:16:02;10.90;99.90
2389;DHT22;1205;47.984;7.668;2022-11-04T02:35:22;10.90;99.90
2389;DHT22;1205;47.984;7.668;2022-11-04T02:46:23;10.80;99.90
2389;DHT22;1205;47.984;7.668;2022-11-04T02:49:00;10.80;99.90
2389;DHT22;1205;47.984;7.668;2022-11-04T02:52:04;10.80;99.90
2389;DHT22;1205;47.984;7.668;2022-11-04T02:54:39;10.80;99.90
2389;DHT22;1205;47.984;7.668;2022-11-04T02:57:07;10.90;99.90
2389;DHT22;1205;47.984;7.668;2022-11-04T02:59:38;10.80;99.90
2389;DHT22;1205;47.984;7.668;2022-11-04T03:02:08;10.80;99.90
2389;DHT22;1205;47.984;7.668;2022-11-04T03:04:39;10.80;99.90
2389;DHT22;1205;47.984;7.668;2022-11-04T03:07:08;10.80;99.90
2389;DHT22;1205;47.984;7.668;2022-11-04T03:09:35;10.80;99.90
2389;DHT22;1205;47.984;7.668;2022-11-04T03:12:07;10.90;99.90
2389;DHT22;1205;47.984;7.668;2022-11-04T03:14:47;10.80;99.90
2389;DHT22;1205;47.984;7.668;2022-11-04T03:17:20;10.80;99.90
2389;DHT22;1205;47.984;7.668;2022-11-04T03:19:52;10.80;99.90
2389;DHT22;1205;47.984;7.668;2022-11-04T03:22:22;10.80;99.90
2389;DHT22;1205;47.984;7.668;2022-11-04T03:24:49;10.80;99.90
2389;DHT22;1205;47.984;7.668;2022-11-04T03:30:11;10.70;99.90
2389;DHT22;1205;47.984;7.668;2022-11-04T03:35:19;10.60;99.90
2389;DHT22;1205;47.984;7.668;2022-11-04T03:37:46;10.60;99.90
2389;DHT22;1205;47.984;7.668;2022-11-04T03:40:13;10.60;99.90
2389;DHT22;1205;47.984;7.668;2022-11-04T03:42:45;10.50;99.90
2389;DHT22;1205;47.984;7.668;2022-11-04T03:45:13;10.50;99.90
2389;DHT22;1205;47.984;7.668;2022-11-04T03:47:39;10.50;99.90
2389;DHT22;1205;47.984;7.668;2022-11-04T03:50:27;10.50;99.90
2389;DHT22;1205;47.984;7.668;2022-11-04T03:52:53;10.50;99.90
2389;DHT22;1205;47.984;7.668;2022-11-04T03:55:21;10.50;99.90
2389;DHT22;1205;47.984;7.668;2022-11-04T03:57:58;10.50;99.90
2389;DHT22;1205;47.984;7.668;2022-11-04T04:00:30;10.50;99.90
2389;DHT22;1205;47.984;7.668;2022-11-04T04:03:16;10.50;99.90
2389;DHT22;1205;47.984;7.668;2022-11-04T04:06:08;10.50;99.90
2389;DHT22;1205;47.984;7.668;2022-11-04T04:08:39;10.40;99.90
2389;DHT22;1205;47.984;7.668;2022-11-04T04:14:05;10.40;99.90
2389;DHT22;1205;47.984;7.668;2022-11-04T04:16:38;10.40;99.90
2389;DHT22;1205;47.984;7.668;2022-11-04T04:19:19;10.40;99.90
2389;DHT22;1205;47.984;7.668;2022-11-04T04:21:51;10.40;99.90
2389;DHT22;1205;47.984;7.668;2022-11-04T04:24:20;10.30;99.90
2389;DHT22;1205;47.984;7.668;2022-11-04T04:27:05;10.30;99.90
2389;DHT22;1205;47.984;7.668;2022-11-04T04:29:50;10.30;99.90
2389;DHT22;1205;47.984;7.668;2022-11-04T04:32:17;10.30;99.90
2389;DHT22;1205;47.984;7.668;2022-11-04T04:34:44;10.30;99.90
2389;DHT22;1205;47.984;7.668;2022-11-04T04:37:22;10.30;99.90
2389;DHT22;1205;47.984;7.668;2022-11-04T04:39:51;10.30;99.90
2389;DHT22;1205;47.984;7.668;2022-11-04T04:42:36;10.30;99.90
2389;DHT22;1205;47.984;7.668;2022-11-04T04:45:31;10.30;99.90
2389;DHT22;1205;47.984;7.668;2022-11-04T04:47:58;10.30;99.90
2389;DHT22;1205;47.984;7.668;2022-11-04T04:50:27;10.30;99.90
2389;DHT22;1205;47.984;7.668;2022-11-04T04:52:54;10.20;99.90
2389;DHT22;1205;47.984;7.668;2022-11-04T04:55:21;10.20;99.90
2389;DHT22;1205;47.984;7.668;2022-11-04T04:57:46;10.30;99.90
2389;DHT22;1205;47.984;7.668;2022-11-04T05:00:14;10.20;99.90
2389;DHT22;1205;47.984;7.668;2022-11-04T05:02:40;10.20;99.90
2389;DHT22;1205;47.984;7.668;2022-11-04T05:05:07;10.30;99.90
2389;DHT22;1205;47.984;7.668;2022-11-04T05:07:32;10.20;99.90
2389;DHT22;1205;47.984;7.668;2022-11-04T05:09:58;10.20;99.90
2389;DHT22;1205;47.984;7.668;2022-11-04T05:12:23;10.30;99.90
2389;DHT22;1205;47.984;7.668;2022-11-04T05:14:49;10.30;99.90
2389;DHT22;1205;47.984;7.668;2022-11-04T05:17:14;10.30;99.90
2389;DHT22;1205;47.984;7.668;2022-11-04T05:19:40;10.30;99.90
2389;DHT22;1205;47.984;7.668;2022-11-04T05:22:06;10.30;99.90
2389;DHT22;1205;47.984;7.668;2022-11-04T05:24:31;10.30;99.90
2389;DHT22;1205;47.984;7.668;2022-11-04T05:26:57;10.30;99.90
2389;DHT22;1205;47.984;7.668;2022-11-04T05:29:23;10.20;99.90
2389;DHT22;1205;47.984;7.668;2022-11-04T05:31:48;10.30;99.90
2389;DHT22;1205;47.984;7.668;2022-11-04T05:34:14;10.20;99.90
2389;DHT22;1205;47.984;7.668;2022-11-04T05:36:40;10.20;99.90
2389;DHT22;1205;47.984;7.668;2022-11-04T05:39:06;10.20;99.90
2389;DHT22;1205;47.984;7.668;2022-11-04T05:41:32;10.20;99.90
2389;DHT22;1205;47.984;7.668;2022-11-04T05:44:00;10.30;99.90
2389;DHT22;1205;47.984;7.668;2022-11-04T05:46:27;10.20;99.90
2389;DHT22;1205;47.984;7.668;2022-11-04T05:48:52;10.20;99.90
2389;DHT22;1205;47.984;7.668;2022-11-04T05:51:27;10.20;99.90
2389;DHT22;1205;47.984;7.668;2022-11-04T05:53:53;10.20;99.90
2389;DHT22;1205;47.984;7.668;2022-11-04T05:56:19;10.10;99.90
2389;DHT22;1205;47.984;7.668;2022-11-04T05:58:44;10.10;99.90
2389;DHT22;1205;47.984;7.668;2022-11-04T06:01:30;10.10;99.90
2389;DHT22;1205;47.984;7.668;2022-11-04T06:03:57;10.00;99.90
2389;DHT22;1205;47.984;7.668;2022-11-04T06:06:23;10.00;99.90
2389;DHT22;1205;47.984;7.668;2022-11-04T06:08:50;10.00;99.90
2389;DHT22;1205;47.984;7.668;2022-11-04T06:11:17;10.10;99.90
2389;DHT22;1205;47.984;7.668;2022-11-04T06:13:42;10.00;99.90
2389;DHT22;1205;47.984;7.668;2022-11-04T06:16:08;10.00;99.90
2389;DHT22;1205;47.984;7.668;2022-11-04T06:18:33;10.00;99.90
2389;DHT22;1205;47.984;7.668;2022-11-04T06:23:31;10.00;99.90
2389;DHT22;1205;47.984;7.668;2022-11-04T06:25:57;10.00;99.90
2389;DHT22;1205;47.984;7.668;2022-11-04T06:28:22;10.00;99.90
2389;DHT22;1205;47.984;7.668;2022-11-04T06:30:48;9.90;99.90
2389;DHT22;1205;47.984;7.668;2022-11-04T06:33:14;9.90;99.90
2389;DHT22;1205;47.984;7.668;2022-11-04T06:35:39;9.90;99.90
2389;DHT22;1205;47.984;7.668;2022-11-04T06:38:05;9.90;99.90
2389;DHT22;1205;47.984;7.668;2022-11-04T06:40:30;9.80;99.90
2389;DHT22;1205;47.984;7.668;2022-11-04T06:42:56;9.90;99.90
2389;DHT22;1205;47.984;7.668;2022-11-04T06:45:22;9.90;99.90
2389;DHT22;1205;47.984;7.668;2022-11-04T06:47:47;9.80;99.90
2389;DHT22;1205;47.984;7.668;2022-11-04T06:50:13;9.80;99.90
2389;DHT22;1205;47.984;7.668;2022-11-04T06:52:39;9.90;99.90
2389;DHT22;1205;47.984;7.668;2022-11-04T06:55:05;9.80;99.90
2389;DHT22;1205;47.984;7.668;2022-11-04T06:57:31;9.80;99.90
2389;DHT22;1205;47.984;7.668;2022-11-04T06:59:57;9.80;99.90
2389;DHT22;1205;47.984;7.668;2022-11-04T07:02:22;9.80;99.90
2389;DHT22;1205;47.984;7.668;2022-11-04T07:04:48;9.90;99.90
2389;DHT22;1205;47.984;7.668;2022-11-04T07:07:13;9.90;99.90
2389;DHT22;1205;47.984;7.668;2022-11-04T07:09:39;10.00;99.90
2389;DHT22;1205;47.984;7.668;2022-11-04T07:12:05;9.90;99.90
2389;DHT22;1205;47.984;7.668;2022-11-04T07:14:30;10.00;99.90
2389;DHT22;1205;47.984;7.668;2022-11-04T07:16:56;9.90;99.90
2389;DHT22;1205;47.984;7.668;2022-11-04T07:19:21;9.90;99.90
2389;DHT22;1205;47.984;7.668;2022-11-04T07:21:47;9.90;99.90
2389;DHT22;1205;47.984;7.668;2022-11-04T07:24:12;9.90;99.90
2389;DHT22;1205;47.984;7.668;2022-11-04T07:26:38;10.00;99.90
2389;DHT22;1205;47.984;7.668;2022-11-04T07:29:04;10.00;99.90
2389;DHT22;1205;47.984;7.668;2022-11-04T07:31:31;10.00;99.90
2389;DHT22;1205;47.984;7.668;2022-11-04T07:33:57;10.00;99.90
2389;DHT22;1205;47.984;7.668;2022-11-04T07:36:22;10.00;99.90
2389;DHT22;1205;47.984;7.668;2022-11-04T07:38:48;10.20;99.90
2389;DHT22;1205;47.984;7.668;2022-11-04T07:41:14;10.30;99.90
2389;DHT22;1205;47.984;7.668;2022-11-04T07:43:40;10.30;99.90
2389;DHT22;1205;47.984;7.668;2022-11-04T07:46:11;10.30;99.90
2389;DHT22;1205;47.984;7.668;2022-11-04T07:48:39;10.30;99.90
2389;DHT22;1205;47.984;7.668;2022-11-04T07:51:06;10.40;99.90
2389;DHT22;1205;47.984;7.668;2022-11-04T07:53:32;10.40;99.90
2389;DHT22;1205;47.984;7.668;2022-11-04T07:56:05;10.50;99.90
2389;DHT22;1205;47.984;7.668;2022-11-04T07:58:31;10.50;99.90
2389;DHT22;1205;47.984;7.668;2022-11-04T08:00:59;10.50;99.90
2389;DHT22;1205;47.984;7.668;2022-11-04T08:03:25;10.60;99.90
2389;DHT22;1205;47.984;7.668;2022-11-04T08:05:58;10.60;99.90
2389;DHT22;1205;47.984;7.668;2022-11-04T08:08:25;10.70;99.90
2389;DHT22;1205;47.984;7.668;2022-11-04T08:10:56;10.70;99.90
2389;DHT22;1205;47.984;7.668;2022-11-04T08:13:22;10.80;99.90
2389;DHT22;1205;47.984;7.668;2022-11-04T08:15:48;10.80;99.90
2389;DHT22;1205;47.984;7.668;2022-11-04T08:18:14;10.90;99.90
2389;DHT22;1205;47.984;7.668;2022-11-04T08:20:39;10.90;99.90
2389;DHT22;1205;47.984;7.668;2022-11-04T08:23:05;10.90;99.90
2389;DHT22;1205;47.984;7.668;2022-11-04T08:25:32;11.00;99.90
2389;DHT22;1205;47.984;7.668;2022-11-04T08:27:57;11.00;99.90
2389;DHT22;1205;47.984;7.668;2022-11-04T08:30:23;11.10;99.90
2389;DHT22;1205;47.984;7.668;2022-11-04T08:32:48;11.10;99.90
2389;DHT22;1205;47.984;7.668;2022-11-04T08:35:14;11.10;99.90
2389;DHT22;1205;47.984;7.668;2022-11-04T08:37:39;11.20;99.90
2389;DHT22;1205;47.984;7.668;2022-11-04T08:40:05;11.30;99.90
2389;DHT22;1205;47.984;7.668;2022-11-04T08:42:31;11.30;99.90
2389;DHT22;1205;47.984;7.668;2022-11-04T08:44:57;11.20;99.90
2389;DHT22;1205;47.984;7.668;2022-11-04T08:47:22;11.40;99.90
2389;DHT22;1205;47.984;7.668;2022-11-04T08:49:48;11.50;99.90
2389;DHT22;1205;47.984;7.668;2022-11-04T08:52:14;11.50;99.90
2389;DHT22;1205;47.984;7.668;2022-11-04T08:54:40;11.60;99.90
2389;DHT22;1205;47.984;7.668;2022-11-04T08:57:06;11.70;99.90
2389;DHT22;1205;47.984;7.668;2022-11-04T08:59:31;11.70;99.90
2389;DHT22;1205;47.984;7.668;2022-11-04T09:01:57;11.80;99.90
2389;DHT22;1205;47.984;7.668;2022-11-04T09:04:22;11.90;99.90
2389;DHT22;1205;47.984;7.668;2022-11-04T09:06:48;11.90;99.90
2389;DHT22;1205;47.984;7.668;2022-11-04T09:09:16;12.10;99.90
2389;DHT22;1205;47.984;7.668;2022-11-04T09:11:43;12.20;99.90
2389;DHT22;1205;47.984;7.668;2022-11-04T09:14:09;12.20;99.90
2389;DHT22;1205;47.984;7.668;2022-11-04T09:16:36;12.20;99.90
2389;DHT22;1205;47.984;7.668;2022-11-04T09:19:02;12.20;99.90
2389;DHT22;1205;47.984;7.668;2022-11-04T09:21:28;12.30;99.90
2389;DHT22;1205;47.984;7.668;2022-11-04T09:23:54;12.40;99.90
2389;DHT22;1205;47.984;7.668;2022-11-04T09:26:21;12.50;99.90
2389;DHT22;1205;47.984;7.668;2022-11-04T09:28:53;12.60;99.90
2389;DHT22;1205;47.984;7.668;2022-11-04T09:31:19;12.70;99.90
2389;DHT22;1205;47.984;7.668;2022-11-04T09:33:45;12.70;99.90
2389;DHT22;1205;47.984;7.668;2022-11-04T09:36:11;12.80;99.90
2389;DHT22;1205;47.984;7.668;2022-11-04T09:38:38;12.90;99.90
2389;DHT22;1205;47.984;7.668;2022-11-04T09:46:39;13.10;99.90
2389;DHT22;1205;47.984;7.668;2022-11-04T09:49:08;13.20;99.90
2389;DHT22;1205;47.984;7.668;2022-11-04T09:51:35;13.30;99.90
2389;DHT22;1205;47.984;7.668;2022-11-04T09:54:09;13.40;99.90
2389;DHT22;1205;47.984;7.668;2022-11-04T09:56:38;13.40;99.90
2389;DHT22;1205;47.984;7.668;2022-11-04T09:59:09;13.40;99.90
2389;DHT22;1205;47.984;7.668;2022-11-04T10:01:51;13.40;99.90
2389;DHT22;1205;47.984;7.668;2022-11-04T10:10:05;13.40;99.90
2389;DHT22;1205;47.984;7.668;2022-11-04T10:16:02;13.40;99.90
2389;DHT22;1205;47.984;7.668;2022-11-04T10:21:57;13.50;99.90
2389;DHT22;1205;47.984;7.668;2022-11-04T10:27:08;13.50;99.90
2389;DHT22;1205;47.984;7.668;2022-11-04T10:29:44;13.50;99.90
2389;DHT22;1205;47.984;7.668;2022-11-04T10:32:25;13.50;99.90
2389;DHT22;1205;47.984;7.668;2022-11-04T10:34:57;13.40;99.90
2389;DHT22;1205;47.984;7.668;2022-11-04T10:37:25;13.50;99.90
2389;DHT22;1205;47.984;7.668;2022-11-04T10:39:54;13.40;99.90
2389;DHT22;1205;47.984;7.668;2022-11-04T10:42:23;13.40;99.90
2389;DHT22;1205;47.984;7.668;2022-11-04T10:44:50;13.40;99.90
2389;DHT22;1205;47.984;7.668;2022-11-04T10:50:29;13.50;99.90
2389;DHT22;1205;47.984;7.668;2022-11-04T10:53:34;13.60;99.90
2389;DHT22;1205;47.984;7.668;2022-11-04T10:56:18;13.70;99.90
2389;DHT22;1205;47.984;7.668;2022-11-04T10:58:47;13.80;99.90
2389;DHT22;1205;47.984;7.668;2022-11-04T11:01:28;13.80;99.90
2389;DHT22;1205;47.984;7.668;2022-11-04T11:03:54;13.80;99.90
2389;DHT22;1205;47.984;7.668;2022-11-04T11:06:27;13.80;99.90
2389;DHT22;1205;47.984;7.668;2022-11-04T11:09:13;13.80;99.90
2389;DHT22;1205;47.984;7.668;2022-11-04T11:11:49;13.90;99.90
2389;DHT22;1205;47.984;7.668;2022-11-04T11:16:51;14.10;99.90
2389;DHT22;1205;47.984;7.668;2022-11-04T11:19:19;14.00;99.90
2389;DHT22;1205;47.984;7.668;2022-11-04T11:21:51;14.10;99.90
2389;DHT22;1205;47.984;7.668;2022-11-04T11:24:21;14.50;99.90
2389;DHT22;1205;47.984;7.668;2022-11-04T11:26:50;14.90;99.90
2389;DHT22;1205;47.984;7.668;2022-11-04T11:29:27;15.10;99.90
2389;DHT22;1205;47.984;7.668;2022-11-04T11:31:55;14.90;99.90
2389;DHT22;1205;47.984;7.668;2022-11-04T11:34:32;14.90;99.90
2389;DHT22;1205;47.984;7.668;2022-11-04T11:37:01;14.50;99.90
2389;DHT22;1205;47.984;7.668;2022-11-04T11:39:31;14.20;99.90
2389;DHT22;1205;47.984;7.668;2022-11-04T11:42:10;13.80;99.90
2389;DHT22;1205;47.984;7.668;2022-11-04T11:44:38;13.70;99.90
2389;DHT22;1205;47.984;7.668;2022-11-04T11:47:41;13.70;99.90
2389;DHT22;1205;47.984;7.668;2022-11-04T11:52:44;13.60;99.90
2389;DHT22;1205;47.984;7.668;2022-11-04T11:55:34;13.70;99.90
2389;DHT22;1205;47.984;7.668;2022-11-04T12:01:01;13.70;99.90
2389;DHT22;1205;47.984;7.668;2022-11-04T12:03:32;13.80;99.90
2389;DHT22;1205;47.984;7.668;2022-11-04T12:06:11;13.90;99.90
2389;DHT22;1205;47.984;7.668;2022-11-04T12:11:39;14.00;99.90
2389;DHT22;1205;47.984;7.668;2022-11-04T12:14:12;14.10;99.90
2389;DHT22;1205;47.984;7.668;2022-11-04T12:16:55;14.10;99.90
2389;DHT22;1205;47.984;7.668;2022-11-04T12:22:03;14.00;99.90
2389;DHT22;1205;47.984;7.668;2022-11-04T12:27:27;14.40;99.90
2389;DHT22;1205;47.984;7.668;2022-11-04T12:32:42;14.30;99.90
2389;DHT22;1205;47.984;7.668;2022-11-04T12:38:19;14.30;99.90
2389;DHT22;1205;47.984;7.668;2022-11-04T12:43:44;14.40;99.90
2389;DHT22;1205;47.984;7.668;2022-11-04T12:46:35;14.40;99.90
2389;DHT22;1205;47.984;7.668;2022-11-04T13:00:31;14.30;99.90
2389;DHT22;1205;47.984;7.668;2022-11-04T13:03:04;14.30;99.90
2389;DHT22;1205;47.984;7.668;2022-11-04T13:05:36;14.20;99.90
2389;DHT22;1205;47.984;7.668;2022-11-04T13:10:52;14.10;99.90
2389;DHT22;1205;47.984;7.668;2022-11-04T13:13:23;14.00;99.90
2389;DHT22;1205;47.984;7.668;2022-11-04T13:15:55;13.90;99.90
2389;DHT22;1205;47.984;7.668;2022-11-04T13:18:25;13.90;99.90
2389;DHT22;1205;47.984;7.668;2022-11-04T13:21:06;13.90;99.90
2389;DHT22;1205;47.984;7.668;2022-11-04T13:23:49;13.80;99.90
2389;DHT22;1205;47.984;7.668;2022-11-04T13:26:17;13.80;99.90
2389;DHT22;1205;47.984;7.668;2022-11-04T13:28:46;13.70;99.90
2389;DHT22;1205;47.984;7.668;2022-11-04T13:31:42;13.70;99.90
2389;DHT22;1205;47.984;7.668;2022-11-04T13:34:31;13.60;99.90
2389;DHT22;1205;47.984;7.668;2022-11-04T13:39:39;13.60;99.90
2389;DHT22;1205;47.984;7.668;2022-11-04T13:42:25;13.60;99.90
2389;DHT22;1205;47.984;7.668;2022-11-04T13:44:56;13.60;99.90
2389;DHT22;1205;47.984;7.668;2022-11-04T13:47:36;13.50;99.90
2389;DHT22;1205;47.984;7.668;2022-11-04T13:50:03;13.50;99.90
2389;DHT22;1205;47.984;7.668;2022-11-04T13:52:31;13.50;99.90
2389;DHT22;1205;47.984;7.668;2022-11-04T13:55:02;13.50;99.90
2389;DHT22;1205;47.984;7.668;2022-11-04T13:57:51;13.40;99.90
2389;DHT22;1205;47.984;7.668;2022-11-04T14:00:28;13.40;99.90
2389;DHT22;1205;47.984;7.668;2022-11-04T14:02:59;13.40;99.90
2389;DHT22;1205;47.984;7.668;2022-11-04T14:10:47;13.40;99.90
2389;DHT22;1205;47.984;7.668;2022-11-04T14:16:37;14.60;99.90
2389;DHT22;1205;47.984;7.668;2022-11-04T14:19:44;14.90;99.90
2389;DHT22;1205;47.984;7.668;2022-11-04T14:22:14;15.10;99.90
2389;DHT22;1205;47.984;7.668;2022-11-04T14:24:41;14.60;99.90
2389;DHT22;1205;47.984;7.668;2022-11-04T14:27:38;14.40;99.90
2389;DHT22;1205;47.984;7.668;2022-11-04T14:30:05;14.40;99.90
2389;DHT22;1205;47.984;7.668;2022-11-04T14:32:38;14.20;99.90
2389;DHT22;1205;47.984;7.668;2022-11-04T14:35:06;13.90;99.90
2389;DHT22;1205;47.984;7.668;2022-11-04T14:37:34;13.90;99.90
2389;DHT22;1205;47.984;7.668;2022-11-04T14:40:03;13.70;99.90
2389;DHT22;1205;47.984;7.668;2022-11-04T14:45:10;13.50;99.90
2389;DHT22;1205;47.984;7.668;2022-11-04T14:47:37;13.40;99.90
2389;DHT22;1205;47.984;7.668;2022-11-04T14:50:05;13.30;99.90
2389;DHT22;1205;47.984;7.668;2022-11-04T14:52:46;13.30;99.90
2389;DHT22;1205;47.984;7.668;2022-11-04T14:55:14;13.20;99.90
2389;DHT22;1205;47.984;7.668;2022-11-04T14:57:45;13.20;99.90
2389;DHT22;1205;47.984;7.668;2022-11-04T15:00:27;13.20;99.90
2389;DHT22;1205;47.984;7.668;2022-11-04T15:05:36;13.10;99.90
2389;DHT22;1205;47.984;7.668;2022-11-04T15:11:11;12.70;99.90
2389;DHT22;1205;47.984;7.668;2022-11-04T15:16:28;12.00;99.90
2389;DHT22;1205;47.984;7.668;2022-11-04T15:18:57;11.70;99.90
2389;DHT22;1205;47.984;7.668;2022-11-04T15:21:23;11.70;99.90
2389;DHT22;1205;47.984;7.668;2022-11-04T15:23:51;11.90;99.90
2389;DHT22;1205;47.984;7.668;2022-11-04T15:26:31;12.00;99.90
2389;DHT22;1205;47.984;7.668;2022-11-04T15:29:02;12.00;99.90
2389;DHT22;1205;47.984;7.668;2022-11-04T15:31:33;11.90;99.90
2389;DHT22;1205;47.984;7.668;2022-11-04T15:34:04;11.80;99.90
2389;DHT22;1205;47.984;7.668;2022-11-04T15:36:38;11.90;99.90
2389;DHT22;1205;47.984;7.668;2022-11-04T15:41:33;12.00;99.90
2389;DHT22;1205;47.984;7.668;2022-11-04T15:44:29;12.00;99.90
2389;DHT22;1205;47.984;7.668;2022-11-04T15:46:58;12.00;99.90
2389;DHT22;1205;47.984;7.668;2022-11-04T15:49:25;11.90;99.90
2389;DHT22;1205;47.984;7.668;2022-11-04T15:51:54;11.90;99.90
2389;DHT22;1205;47.984;7.668;2022-11-04T15:54:26;11.90;99.90
2389;DHT22;1205;47.984;7.668;2022-11-04T15:56:56;12.00;99.90
2389;DHT22;1205;47.984;7.668;2022-11-04T15:59:25;11.90;99.90
2389;DHT22;1205;47.984;7.668;2022-11-04T16:01:52;11.80;99.90
2389;DHT22;1205;47.984;7.668;2022-11-04T16:04:21;11.80;99.90
2389;DHT22;1205;47.984;7.668;2022-11-04T16:07:03;11.90;99.90
2389;DHT22;1205;47.984;7.668;2022-11-04T16:09:29;11.80;99.90
2389;DHT22;1205;47.984;7.668;2022-11-04T16:14:31;11.80;99.90
2389;DHT22;1205;47.984;7.668;2022-11-04T16:16:57;11.70;99.90
2389;DHT22;1205;47.984;7.668;2022-11-04T16:19:25;11.70;99.90
2389;DHT22;1205;47.984;7.668;2022-11-04T16:21:59;11.60;99.90
2389;DHT22;1205;47.984;7.668;2022-11-04T16:24:29;11.60;99.90
2389;DHT22;1205;47.984;7.668;2022-11-04T16:26:56;11.60;99.90
2389;DHT22;1205;47.984;7.668;2022-11-04T16:29:23;11.60;99.90
2389;DHT22;1205;47.984;7.668;2022-11-04T16:32:14;11.60;99.90
2389;DHT22;1205;47.984;7.668;2022-11-04T16:34:41;11.60;99.90
2389;DHT22;1205;47.984;7.668;2022-11-04T16:37:07;11.50;99.90
2389;DHT22;1205;47.984;7.668;2022-11-04T16:39:33;11.50;99.90
2389;DHT22;1205;47.984;7.668;2022-11-04T16:41:58;11.50;99.90
2389;DHT22;1205;47.984;7.668;2022-11-04T16:44:24;11.50;99.90
2389;DHT22;1205;47.984;7.668;2022-11-04T16:46:50;11.50;99.90
2389;DHT22;1205;47.984;7.668;2022-11-04T16:49:18;11.50;99.90
2389;DHT22;1205;47.984;7.668;2022-11-04T16:51:44;11.50;99.90
2389;DHT22;1205;47.984;7.668;2022-11-04T16:54:12;11.40;99.90
2389;DHT22;1205;47.984;7.668;2022-11-04T16:56:38;11.40;99.90
2389;DHT22;1205;47.984;7.668;2022-11-04T16:59:04;11.40;99.90
2389;DHT22;1205;47.984;7.668;2022-11-04T17:01:29;11.40;99.90
2389;DHT22;1205;47.984;7.668;2022-11-04T17:03:56;11.40;99.90
2389;DHT22;1205;47.984;7.668;2022-11-04T17:06:21;11.40;99.90
2389;DHT22;1205;47.984;7.668;2022-11-04T17:08:47;11.40;99.90
2389;DHT22;1205;47.984;7.668;2022-11-04T17:11:12;11.40;99.90
2389;DHT22;1205;47.984;7.668;2022-11-04T17:13:38;11.40;99.90
2389;DHT22;1205;47.984;7.668;2022-11-04T17:16:05;11.40;99.90
2389;DHT22;1205;47.984;7.668;2022-11-04T17:18:32;11.30;99.90
2389;DHT22;1205;47.984;7.668;2022-11-04T17:20:58;11.30;99.90
2389;DHT22;1205;47.984;7.668;2022-11-04T17:23:25;11.40;99.90
2389;DHT22;1205;47.984;7.668;2022-11-04T17:25:51;11.30;99.90
2389;DHT22;1205;47.984;7.668;2022-11-04T17:28:17;11.40;99.90
2389;DHT22;1205;47.984;7.668;2022-11-04T17:30:43;11.40;99.90
2389;DHT22;1205;47.984;7.668;2022-11-04T17:33:12;11.30;99.90
2389;DHT22;1205;47.984;7.668;2022-11-04T17:35:38;11.30;99.90
2389;DHT22;1205;47.984;7.668;2022-11-04T17:38:04;11.30;99.90
2389;DHT22;1205;47.984;7.668;2022-11-04T17:40:30;11.30;99.90
2389;DHT22;1205;47.984;7.668;2022-11-04T17:42:56;11.20;99.90
2389;DHT22;1205;47.984;7.668;2022-11-04T17:45:40;11.30;99.90
2389;DHT22;1205;47.984;7.668;2022-11-04T17:48:06;11.30;99.90
2389;DHT22;1205;47.984;7.668;2022-11-04T17:50:33;11.30;99.90
2389;DHT22;1205;47.984;7.668;2022-11-04T17:52:59;11.30;99.90
2389;DHT22;1205;47.984;7.668;2022-11-04T17:55:25;11.20;99.90
2389;DHT22;1205;47.984;7.668;2022-11-04T17:57:50;11.30;99.90
2389;DHT22;1205;47.984;7.668;2022-11-04T18:00:16;11.20;99.90
2389;DHT22;1205;47.984;7.668;2022-11-04T18:02:43;11.20;99.90
2389;DHT22;1205;47.984;7.668;2022-11-04T18:05:09;11.20;99.90
2389;DHT22;1205;47.984;7.668;2022-11-04T18:07:35;11.20;99.90
2389;DHT22;1205;47.984;7.668;2022-11-04T18:10:01;11.20;99.90
2389;DHT22;1205;47.984;7.668;2022-11-04T18:12:26;11.10;99.90
2389;DHT22;1205;47.984;7.668;2022-11-04T18:15:04;11.10;99.90
2389;DHT22;1205;47.984;7.668;2022-11-04T18:17:30;11.00;99.90
2389;DHT22;1205;47.984;7.668;2022-11-04T18:19:56;11.00;99.90
2389;DHT22;1205;47.984;7.668;2022-11-04T18:22:22;10.90;99.90
2389;DHT22;1205;47.984;7.668;2022-11-04T18:24:47;10.90;99.90
2389;DHT22;1205;47.984;7.668;2022-11-04T18:27:13;10.90;99.90